Flight Track Log - Related Links

Times and Time Zones

All times are in EDT time to prevent confusion due to time zone crossing. See the DCM837C flight status page for this flight to view local times or setup timezone preferences in your user account.

Time Position Orientation Groundspeed Altitude Reporting Facility
EDT Latitude Longitude Course Direction KTS MPH feet Rate Location/Type
Sat 06:02:59 AM 39.8667 -75.2667 218° Southwest 170 196 600  Level Philadelphia TRACON
Sat 06:03:35 AM 39.8333 -75.3000 218° Southwest 203 234 1,900 3,000 Climbing Philadelphia TRACON
Sat 06:04:35 AM 39.8000 -75.3500 229° Southwest 219 252 5,400 3,318 Climbing Philadelphia TRACON
Sat 06:05:47 AM 39.7167 -75.3667 189° South 265 305 9,200 2,241 Climbing Philadelphia TRACON
Sat 06:07:29 AM 39.7214 -75.2133 88° East 308 354 11,900 1,259 Climbing New York Center
Sat 06:08:29 AM 39.7408 -75.0822 79° East 349 402 12,600 1,563 Climbing New York Center
Sat 06:09:28 AM 39.8097 -74.9650 53° Northeast 372 428 15,000 2,269 Climbing New York Center
Sat 06:10:28 AM 39.8692 -74.8711 50° Northeast 372 428 17,100 1,934 Climbing New York Center
Sat 06:11:29 AM 39.9422 -74.7536 51° Northeast 377 434 18,900 2,016 Climbing New York Center
Sat 06:12:30 AM 39.9975 -74.6592 53° Northeast 370 426 21,200 2,033 Climbing New York Center
Sat 06:13:30 AM 40.0658 -74.5436 52° Northeast 365 420 23,000 900 Climbing New York Center
Sat 06:14:30 AM 40.1383 -74.4253 51° Northeast 379 436 23,000  Level New York Center
Sat 06:15:31 AM 40.2131 -74.2961 53° Northeast 408 470 23,000  Level New York Center
Sat 06:16:29 AM 40.2878 -74.1694 52° Northeast 437 503 23,000  Level New York Center
Sat 06:18:04 AM 40.4081 -73.9689 52° Northeast 460 529 23,000  Level Boston Center
Sat 06:19:04 AM 40.4869 -73.8372 52° Northeast 460 529 23,000  Level Boston Center
Sat 06:20:04 AM 40.5636 -73.7050 53° Northeast 460 529 23,000  Level Boston Center
Sat 06:21:04 AM 40.6400 -73.5614 55° Northeast 450 518 23,000  Level Boston Center
Sat 06:22:04 AM 40.7164 -73.4342 52° Northeast 440 506 23,000  Level Boston Center
Sat 06:23:04 AM 40.7839 -73.3200 52° Northeast 435 501 23,000  Level Boston Center
Sat 06:24:04 AM 40.8744 -73.2058 44° Northeast 435 501 23,000 -550 Level Boston Center
Sat 06:25:04 AM 40.9769 -73.1164 33° Northeast 440 506 21,900 -1,100 Descending Boston Center
Sat 06:26:04 AM 41.0797 -73.0322 32° Northeast 440 506 20,800 -1,100 Descending Boston Center
Sat 06:27:04 AM 41.1800 -72.9447 33° Northeast 435 501 19,700 -1,150 Descending Boston Center
Sat 06:28:04 AM 41.2783 -72.8628 32° Northeast 417 480 18,500 -950 Descending Boston Center
Sat 06:29:04 AM 41.3828 -72.7719 33° Northeast 407 468 17,800 -900 Descending Boston Center
Sat 06:30:04 AM 41.4622 -72.7033 33° Northeast 396 456 16,700 -1,150 Descending Boston Center
Sat 06:31:04 AM 41.5603 -72.6178 33° Northeast 386 444 15,500 -1,111 Descending Boston Center
Sat 06:31:25 AM 41.5939 -72.5928 29° Northeast 375 432 15,200 -800 Descending Boston Center
Sat 06:32:04 AM 41.6314 -72.5594 34° Northeast 381 438 14,700 -1,212 Descending Boston Center
Sat 06:33:04 AM 41.7294 -72.4511 39° Northeast 374 430 13,200 -1,400 Descending Boston Center
Sat 06:34:04 AM 41.8022 -72.3733 39° Northeast 374 430 11,900 -1,008 Descending Boston Center
Sat 06:35:09 AM 41.8917 -72.2756 39° Northeast 362 417 11,100 -900 Descending Boston Center
Sat 06:36:04 AM 41.9500 -72.2056 42° Northeast 345 397 10,100 -1,200 Descending Boston Center
Sat 06:37:04 AM 42.0164 -72.1300 40° Northeast 297 342 8,800 -1,200 Descending Boston Center
Sat 06:38:04 AM 42.0706 -72.0681 40° Northeast 277 319 7,700 -1,150 Descending Boston Center
Sat 06:39:04 AM 42.1389 -71.9950 38° Northeast 277 319 6,500 -1,150 Descending Boston Center
Sat 06:40:04 AM 42.1950 -71.9300 41° Northeast 282 325 5,400 -683 Descending Boston Center
Sat 06:41:07 AM 42.2633 -71.8567 38° Northeast 268 308 5,100 -150 Descending Boston Center
Sat 06:42:04 AM 42.3111 -71.7972 43° Northeast 266 306 5,100 -51 Level Boston Center
Sat 06:43:04 AM 42.3753 -71.7292 38° Northeast 266 306 5,000 -200 Descending Boston Center
Sat 06:44:04 AM 42.4167 -71.6722 45° Northeast 239 275 4,700 -850 Descending Boston Center
Sat 06:45:04 AM 42.4556 -71.6044 52° Northeast 209 241 3,300 -800 Descending Boston Center
Sat 06:46:04 AM 42.4803 -71.5450 61° Northeast 194 223 3,100 -150 Descending Boston Center
Sat 06:47:04 AM 42.4881 -71.4800 81° East 166 191 3,000 -450 Descending Boston Center
Sat 06:48:04 AM 42.4833 -71.4294 97° East 155 178 2,200 -550 Descending Boston Center
Sat 06:49:04 AM 42.4869 -71.3703 85° East 150 173 1,900  Descending Boston Center
Sat 06:50:04 AM 42.5097 -71.3333 50° Northeast 138 159 2,200 100 Climbing Boston Center
Sat 06:51:04 AM 42.5194 -71.2739 77° East 138 159 2,100 -150 Descending Boston Center
Sat 06:52:04 AM 42.5189 -71.2261 91° East 143 165 1,900 -300 Descending Boston Center
Sat 06:53:04 AM 42.4978 -71.1842 124° Southeast 122 140 1,500 6,550 Descending Boston Center
Sat 06:54:04 AM 42.4825 -71.1422 116° Southeast 122 140 15,000 13,500 Climbing Boston Center
Sat 06:56:00 AM 42.4667 -71.2833 225° Southwest  Level FlightAware Approximate
Sat 07:03:00 AM 42.4699 -71.2890 225° Southwest  Level Estimated

Login

Don't have an account? Register now (free) for customized features, flight alerts, and more!